sensor_id;sensor_type;location;lat;lon;timestamp;temperature;humidity
7143;DHT22;3613;48.902;9.204;2022-11-15T00:29:46;9.00;99.90
7143;DHT22;3613;48.902;9.204;2022-11-15T00:32:13;8.90;99.90
7143;DHT22;3613;48.902;9.204;2022-11-15T00:34:39;8.90;99.90
7143;DHT22;3613;48.902;9.204;2022-11-15T00:37:07;8.90;99.90
7143;DHT22;3613;48.902;9.204;2022-11-15T00:39:35;8.80;99.90
7143;DHT22;3613;48.902;9.204;2022-11-15T00:42:00;8.80;99.90
7143;DHT22;3613;48.902;9.204;2022-11-15T00:44:26;8.80;99.90
7143;DHT22;3613;48.902;9.204;2022-11-15T00:46:54;8.70;99.90
7143;DHT22;3613;48.902;9.204;2022-11-15T00:49:20;8.70;99.90
7143;DHT22;3613;48.902;9.204;2022-11-15T00:51:45;8.60;99.90
7143;DHT22;3613;48.902;9.204;2022-11-15T00:54:11;8.60;99.90
7143;DHT22;3613;48.902;9.204;2022-11-15T00:56:39;8.50;99.90
7143;DHT22;3613;48.902;9.204;2022-11-15T00:59:09;8.50;99.90
7143;DHT22;3613;48.902;9.204;2022-11-15T01:01:35;8.70;99.90
7143;DHT22;3613;48.902;9.204;2022-11-15T01:04:00;8.30;99.90
7143;DHT22;3613;48.902;9.204;2022-11-15T01:06:28;8.30;99.90
7143;DHT22;3613;48.902;9.204;2022-11-15T01:08:56;8.10;99.90
7143;DHT22;3613;48.902;9.204;2022-11-15T01:11:22;7.90;99.90
7143;DHT22;3613;48.902;9.204;2022-11-15T01:13:47;7.80;99.90
7143;DHT22;3613;48.902;9.204;2022-11-15T01:16:16;7.70;99.90
7143;DHT22;3613;48.902;9.204;2022-11-15T01:18:44;7.70;99.90
7143;DHT22;3613;48.902;9.204;2022-11-15T01:21:15;7.60;99.90
7143;DHT22;3613;48.902;9.204;2022-11-15T01:23:41;7.60;99.90
7143;DHT22;3613;48.902;9.204;2022-11-15T01:26:10;7.40;99.90
7143;DHT22;3613;48.902;9.204;2022-11-15T01:28:37;7.30;99.90
7143;DHT22;3613;48.902;9.204;2022-11-15T01:31:05;7.20;99.90
7143;DHT22;3613;48.902;9.204;2022-11-15T01:33:34;7.10;99.90
7143;DHT22;3613;48.902;9.204;2022-11-15T01:36:04;7.00;99.90
7143;DHT22;3613;48.902;9.204;2022-11-15T01:38:30;7.00;99.90
7143;DHT22;3613;48.902;9.204;2022-11-15T01:40:55;7.00;99.90
7143;DHT22;3613;48.902;9.204;2022-11-15T01:43:23;7.00;99.90
7143;DHT22;3613;48.902;9.204;2022-11-15T01:45:59;6.90;99.90
7143;DHT22;3613;48.902;9.204;2022-11-15T01:48:30;7.00;99.90
7143;DHT22;3613;48.902;9.204;2022-11-15T01:50:57;7.00;99.90
7143;DHT22;3613;48.902;9.204;2022-11-15T01:53:24;7.00;99.90
7143;DHT22;3613;48.902;9.204;2022-11-15T01:55:53;6.90;99.90
7143;DHT22;3613;48.902;9.204;2022-11-15T01:58:20;7.20;99.90
7143;DHT22;3613;48.902;9.204;2022-11-15T02:00:45;7.00;99.90
7143;DHT22;3613;48.902;9.204;2022-11-15T02:03:15;7.10;99.90
7143;DHT22;3613;48.902;9.204;2022-11-15T02:05:41;7.20;99.90
7143;DHT22;3613;48.902;9.204;2022-11-15T02:08:08;7.40;99.90
7143;DHT22;3613;48.902;9.204;2022-11-15T02:10:47;7.50;99.90
7143;DHT22;3613;48.902;9.204;2022-11-15T02:13:14;7.70;99.90
7143;DHT22;3613;48.902;9.204;2022-11-15T02:15:57;8.00;99.90
7143;DHT22;3613;48.902;9.204;2022-11-15T02:18:34;8.40;99.90
7143;DHT22;3613;48.902;9.204;2022-11-15T02:29:34;9.40;99.90
7143;DHT22;3613;48.902;9.204;2022-11-15T02:32:06;9.60;99.90
7143;DHT22;3613;48.902;9.204;2022-11-15T02:35:01;9.70;99.90
7143;DHT22;3613;48.902;9.204;2022-11-15T02:43:10;9.60;99.90
7143;DHT22;3613;48.902;9.204;2022-11-15T02:46:03;9.60;99.90
7143;DHT22;3613;48.902;9.204;2022-11-15T02:48:32;9.60;99.90
7143;DHT22;3613;48.902;9.204;2022-11-15T02:51:01;9.60;99.90
7143;DHT22;3613;48.902;9.204;2022-11-15T02:53:29;9.60;99.90
7143;DHT22;3613;48.902;9.204;2022-11-15T02:58:47;9.70;99.90
7143;DHT22;3613;48.902;9.204;2022-11-15T03:12:01;10.20;99.90
7143;DHT22;3613;48.902;9.204;2022-11-15T03:14:36;10.30;99.90
7143;DHT22;3613;48.902;9.204;2022-11-15T03:17:16;10.30;99.90
7143;DHT22;3613;48.902;9.204;2022-11-15T03:19:47;10.20;99.90
7143;DHT22;3613;48.902;9.204;2022-11-15T03:22:17;10.20;99.90
7143;DHT22;3613;48.902;9.204;2022-11-15T03:24:46;10.10;99.90
7143;DHT22;3613;48.902;9.204;2022-11-15T03:27:16;10.10;99.90
7143;DHT22;3613;48.902;9.204;2022-11-15T03:29:47;9.90;99.90
7143;DHT22;3613;48.902;9.204;2022-11-15T03:32:23;9.60;99.90
7143;DHT22;3613;48.902;9.204;2022-11-15T03:34:56;9.50;99.90
7143;DHT22;3613;48.902;9.204;2022-11-15T03:37:29;9.30;99.90
7143;DHT22;3613;48.902;9.204;2022-11-15T03:39:58;9.20;99.90
7143;DHT22;3613;48.902;9.204;2022-11-15T03:42:44;9.20;99.90
7143;DHT22;3613;48.902;9.204;2022-11-15T03:45:29;9.10;99.90
7143;DHT22;3613;48.902;9.204;2022-11-15T03:48:26;9.00;99.90
7143;DHT22;3613;48.902;9.204;2022-11-15T03:50:58;8.90;99.90
7143;DHT22;3613;48.902;9.204;2022-11-15T03:53:23;8.90;99.90
7143;DHT22;3613;48.902;9.204;2022-11-15T03:55:56;8.80;99.90
7143;DHT22;3613;48.902;9.204;2022-11-15T03:58:21;8.80;99.90
7143;DHT22;3613;48.902;9.204;2022-11-15T04:00:49;8.90;99.90
7143;DHT22;3613;48.902;9.204;2022-11-15T04:03:17;8.80;99.90
7143;DHT22;3613;48.902;9.204;2022-11-15T04:05:45;8.90;99.90
7143;DHT22;3613;48.902;9.204;2022-11-15T04:08:10;9.00;99.90
7143;DHT22;3613;48.902;9.204;2022-11-15T04:10:36;9.10;99.90
7143;DHT22;3613;48.902;9.204;2022-11-15T04:13:02;9.30;99.90
7143;DHT22;3613;48.902;9.204;2022-11-15T04:15:28;9.20;99.90
7143;DHT22;3613;48.902;9.204;2022-11-15T04:17:57;9.30;99.90
7143;DHT22;3613;48.902;9.204;2022-11-15T04:20:25;9.40;99.90
7143;DHT22;3613;48.902;9.204;2022-11-15T04:23:21;9.40;99.90
7143;DHT22;3613;48.902;9.204;2022-11-15T04:26:17;9.50;99.90
7143;DHT22;3613;48.902;9.204;2022-11-15T04:28:43;9.50;99.90
7143;DHT22;3613;48.902;9.204;2022-11-15T04:31:28;9.50;99.90
7143;DHT22;3613;48.902;9.204;2022-11-15T04:33:54;9.40;99.90
7143;DHT22;3613;48.902;9.204;2022-11-15T04:36:20;9.40;99.90
7143;DHT22;3613;48.902;9.204;2022-11-15T04:39:05;9.40;99.90
7143;DHT22;3613;48.902;9.204;2022-11-15T04:41:30;9.30;99.90
7143;DHT22;3613;48.902;9.204;2022-11-15T04:43:56;9.30;99.90
7143;DHT22;3613;48.902;9.204;2022-11-15T04:46:25;9.30;99.90
7143;DHT22;3613;48.902;9.204;2022-11-15T04:48:51;9.20;99.90
7143;DHT22;3613;48.902;9.204;2022-11-15T04:51:19;9.20;99.90
7143;DHT22;3613;48.902;9.204;2022-11-15T04:53:47;9.20;99.90
7143;DHT22;3613;48.902;9.204;2022-11-15T04:56:15;9.30;99.90
7143;DHT22;3613;48.902;9.204;2022-11-15T04:58:43;9.10;99.90
7143;DHT22;3613;48.902;9.204;2022-11-15T05:01:13;9.00;99.90
7143;DHT22;3613;48.902;9.204;2022-11-15T05:03:40;9.10;99.90
7143;DHT22;3613;48.902;9.204;2022-11-15T05:06:25;9.10;99.90
7143;DHT22;3613;48.902;9.204;2022-11-15T05:08:51;9.10;99.90
7143;DHT22;3613;48.902;9.204;2022-11-15T05:11:16;9.00;99.90
7143;DHT22;3613;48.902;9.204;2022-11-15T05:13:42;8.90;99.90
7143;DHT22;3613;48.902;9.204;2022-11-15T05:16:08;8.80;99.90
7143;DHT22;3613;48.902;9.204;2022-11-15T05:18:34;8.70;99.90
7143;DHT22;3613;48.902;9.204;2022-11-15T05:21:05;8.70;99.90
7143;DHT22;3613;48.902;9.204;2022-11-15T05:23:33;8.50;99.90
7143;DHT22;3613;48.902;9.204;2022-11-15T05:26:02;8.40;99.90
7143;DHT22;3613;48.902;9.204;2022-11-15T05:28:28;8.40;99.90
7143;DHT22;3613;48.902;9.204;2022-11-15T05:31:09;7.30;99.90
7143;DHT22;3613;48.902;9.204;2022-11-15T05:33:37;8.30;99.90
7143;DHT22;3613;48.902;9.204;2022-11-15T05:36:50;8.30;99.90
7143;DHT22;3613;48.902;9.204;2022-11-15T05:38:53;8.30;99.90
7143;DHT22;3613;48.902;9.204;2022-11-15T05:41:24;8.30;99.90
7143;DHT22;3613;48.902;9.204;2022-11-15T05:43:52;8.30;99.90
7143;DHT22;3613;48.902;9.204;2022-11-15T05:46:18;8.20;99.90
7143;DHT22;3613;48.902;9.204;2022-11-15T05:48:46;8.30;99.90
7143;DHT22;3613;48.902;9.204;2022-11-15T05:51:17;8.40;99.90
7143;DHT22;3613;48.902;9.204;2022-11-15T05:53:47;8.50;99.90
7143;DHT22;3613;48.902;9.204;2022-11-15T05:56:14;8.50;99.90
7143;DHT22;3613;48.902;9.204;2022-11-15T05:58:40;8.50;99.90
7143;DHT22;3613;48.902;9.204;2022-11-15T06:01:08;11.20;99.90
7143;DHT22;3613;48.902;9.204;2022-11-15T06:03:34;8.50;99.90
7143;DHT22;3613;48.902;9.204;2022-11-15T06:06:02;8.50;99.90
7143;DHT22;3613;48.902;9.204;2022-11-15T06:08:27;8.40;99.90
7143;DHT22;3613;48.902;9.204;2022-11-15T06:10:53;8.30;99.90
7143;DHT22;3613;48.902;9.204;2022-11-15T06:13:23;8.30;99.90
7143;DHT22;3613;48.902;9.204;2022-11-15T06:15:49;8.30;99.90
7143;DHT22;3613;48.902;9.204;2022-11-15T06:18:14;8.30;99.90
7143;DHT22;3613;48.902;9.204;2022-11-15T06:20:40;8.20;99.90
7143;DHT22;3613;48.902;9.204;2022-11-15T06:23:05;8.30;99.90
7143;DHT22;3613;48.902;9.204;2022-11-15T06:25:31;8.30;99.90
7143;DHT22;3613;48.902;9.204;2022-11-15T06:27:58;8.00;99.90
7143;DHT22;3613;48.902;9.204;2022-11-15T06:30:28;8.40;99.90
7143;DHT22;3613;48.902;9.204;2022-11-15T06:33:03;8.50;99.90
7143;DHT22;3613;48.902;9.204;2022-11-15T06:35:30;8.70;99.90
7143;DHT22;3613;48.902;9.204;2022-11-15T06:38:01;8.60;99.90
7143;DHT22;3613;48.902;9.204;2022-11-15T06:40:26;8.70;99.90
7143;DHT22;3613;48.902;9.204;2022-11-15T06:42:57;8.60;99.90
7143;DHT22;3613;48.902;9.204;2022-11-15T06:45:26;8.60;99.90
7143;DHT22;3613;48.902;9.204;2022-11-15T06:47:52;8.60;99.90
7143;DHT22;3613;48.902;9.204;2022-11-15T06:50:17;8.60;99.90
7143;DHT22;3613;48.902;9.204;2022-11-15T06:52:43;8.60;99.90
7143;DHT22;3613;48.902;9.204;2022-11-15T06:55:09;8.60;99.90
7143;DHT22;3613;48.902;9.204;2022-11-15T06:57:35;8.70;99.90
7143;DHT22;3613;48.902;9.204;2022-11-15T07:00:03;8.70;99.90
7143;DHT22;3613;48.902;9.204;2022-11-15T07:02:29;8.70;99.90
7143;DHT22;3613;48.902;9.204;2022-11-15T07:04:54;8.70;99.90
7143;DHT22;3613;48.902;9.204;2022-11-15T07:07:20;8.60;99.90
7143;DHT22;3613;48.902;9.204;2022-11-15T07:09:45;8.50;99.90
7143;DHT22;3613;48.902;9.204;2022-11-15T07:12:13;8.40;99.90
7143;DHT22;3613;48.902;9.204;2022-11-15T07:14:43;8.40;99.90
7143;DHT22;3613;48.902;9.204;2022-11-15T07:17:09;8.20;99.90
7143;DHT22;3613;48.902;9.204;2022-11-15T07:19:34;8.10;99.90
7143;DHT22;3613;48.902;9.204;2022-11-15T07:22:00;8.10;99.90
7143;DHT22;3613;48.902;9.204;2022-11-15T07:24:25;8.20;99.90
7143;DHT22;3613;48.902;9.204;2022-11-15T07:26:51;8.20;99.90
7143;DHT22;3613;48.902;9.204;2022-11-15T07:29:16;8.30;99.90
7143;DHT22;3613;48.902;9.204;2022-11-15T07:31:42;8.40;99.90
7143;DHT22;3613;48.902;9.204;2022-11-15T07:34:08;8.50;99.90
7143;DHT22;3613;48.902;9.204;2022-11-15T07:36:35;8.60;99.90
7143;DHT22;3613;48.902;9.204;2022-11-15T07:39:03;8.70;99.90
7143;DHT22;3613;48.902;9.204;2022-11-15T07:41:29;8.90;99.90
7143;DHT22;3613;48.902;9.204;2022-11-15T07:43:57;9.20;99.90
7143;DHT22;3613;48.902;9.204;2022-11-15T07:46:25;9.50;99.90
7143;DHT22;3613;48.902;9.204;2022-11-15T07:48:51;9.70;99.90
7143;DHT22;3613;48.902;9.204;2022-11-15T07:51:16;10.10;99.90
7143;DHT22;3613;48.902;9.204;2022-11-15T07:53:45;10.30;99.90
7143;DHT22;3613;48.902;9.204;2022-11-15T07:56:11;10.50;99.90
7143;DHT22;3613;48.902;9.204;2022-11-15T07:58:37;10.70;99.90
7143;DHT22;3613;48.902;9.204;2022-11-15T08:01:07;10.70;99.90
7143;DHT22;3613;48.902;9.204;2022-11-15T08:03:34;10.90;99.90
7143;DHT22;3613;48.902;9.204;2022-11-15T08:06:02;11.00;99.90
7143;DHT22;3613;48.902;9.204;2022-11-15T08:08:30;11.10;99.90
7143;DHT22;3613;48.902;9.204;2022-11-15T08:10:57;11.20;99.90
7143;DHT22;3613;48.902;9.204;2022-11-15T08:13:25;11.20;99.90
7143;DHT22;3613;48.902;9.204;2022-11-15T08:15:51;11.20;99.90
7143;DHT22;3613;48.902;9.204;2022-11-15T08:18:17;11.30;99.90
7143;DHT22;3613;48.902;9.204;2022-11-15T08:20:45;11.40;99.90
7143;DHT22;3613;48.902;9.204;2022-11-15T08:23:11;11.40;99.90
7143;DHT22;3613;48.902;9.204;2022-11-15T08:25:40;11.40;99.90
7143;DHT22;3613;48.902;9.204;2022-11-15T08:28:07;11.40;99.90
7143;DHT22;3613;48.902;9.204;2022-11-15T08:30:38;11.40;99.90
7143;DHT22;3613;48.902;9.204;2022-11-15T08:33:12;14.10;99.90
7143;DHT22;3613;48.902;9.204;2022-11-15T08:35:39;11.50;99.90
7143;DHT22;3613;48.902;9.204;2022-11-15T08:38:07;11.60;99.90
7143;DHT22;3613;48.902;9.204;2022-11-15T08:40:36;11.80;99.90
7143;DHT22;3613;48.902;9.204;2022-11-15T08:43:05;11.90;99.90
7143;DHT22;3613;48.902;9.204;2022-11-15T08:45:31;12.20;99.90
7143;DHT22;3613;48.902;9.204;2022-11-15T08:48:03;12.40;99.90
7143;DHT22;3613;48.902;9.204;2022-11-15T08:50:29;12.60;99.90
7143;DHT22;3613;48.902;9.204;2022-11-15T08:52:54;12.90;99.90
7143;DHT22;3613;48.902;9.204;2022-11-15T08:55:20;13.40;99.90
7143;DHT22;3613;48.902;9.204;2022-11-15T08:57:45;13.90;99.90
7143;DHT22;3613;48.902;9.204;2022-11-15T09:00:12;14.20;99.90
7143;DHT22;3613;48.902;9.204;2022-11-15T09:02:41;14.30;99.90
7143;DHT22;3613;48.902;9.204;2022-11-15T09:05:07;14.50;99.90
7143;DHT22;3613;48.902;9.204;2022-11-15T09:07:33;14.50;99.90
7143;DHT22;3613;48.902;9.204;2022-11-15T09:10:01;14.60;99.90
7143;DHT22;3613;48.902;9.204;2022-11-15T09:12:28;14.50;99.90
7143;DHT22;3613;48.902;9.204;2022-11-15T09:14:54;14.40;99.90
7143;DHT22;3613;48.902;9.204;2022-11-15T09:17:23;14.10;99.90
7143;DHT22;3613;48.902;9.204;2022-11-15T09:19:48;14.00;99.90
7143;DHT22;3613;48.902;9.204;2022-11-15T09:22:14;14.00;99.90
7143;DHT22;3613;48.902;9.204;2022-11-15T09:24:40;14.10;99.90
7143;DHT22;3613;48.902;9.204;2022-11-15T09:27:07;14.20;99.90
7143;DHT22;3613;48.902;9.204;2022-11-15T09:29:33;14.10;99.90
7143;DHT22;3613;48.902;9.204;2022-11-15T09:31:59;14.10;99.90
7143;DHT22;3613;48.902;9.204;2022-11-15T09:34:24;14.20;99.90
7143;DHT22;3613;48.902;9.204;2022-11-15T09:36:50;14.30;99.90
7143;DHT22;3613;48.902;9.204;2022-11-15T09:39:16;14.40;99.90
7143;DHT22;3613;48.902;9.204;2022-11-15T09:49:43;15.50;99.90
7143;DHT22;3613;48.902;9.204;2022-11-15T09:52:13;15.90;99.90
7143;DHT22;3613;48.902;9.204;2022-11-15T09:54:46;16.30;99.90
7143;DHT22;3613;48.902;9.204;2022-11-15T09:57:50;16.50;99.90
7143;DHT22;3613;48.902;9.204;2022-11-15T10:00:33;16.80;99.90
7143;DHT22;3613;48.902;9.204;2022-11-15T10:03:11;16.80;99.90
7143;DHT22;3613;48.902;9.204;2022-11-15T10:05:48;16.60;99.90
7143;DHT22;3613;48.902;9.204;2022-11-15T10:08:24;16.50;99.90
7143;DHT22;3613;48.902;9.204;2022-11-15T10:11:03;16.20;99.90
7143;DHT22;3613;48.902;9.204;2022-11-15T10:13:33;16.10;99.90
7143;DHT22;3613;48.902;9.204;2022-11-15T10:18:55;15.70;99.90
7143;DHT22;3613;48.902;9.204;2022-11-15T10:21:30;15.60;99.90
7143;DHT22;3613;48.902;9.204;2022-11-15T10:23:58;15.60;99.90
7143;DHT22;3613;48.902;9.204;2022-11-15T10:26:26;15.30;99.90
7143;DHT22;3613;48.902;9.204;2022-11-15T10:28:53;15.40;99.90
7143;DHT22;3613;48.902;9.204;2022-11-15T10:31:24;15.30;99.90
7143;DHT22;3613;48.902;9.204;2022-11-15T10:33:53;15.30;99.90
7143;DHT22;3613;48.902;9.204;2022-11-15T10:36:23;15.20;99.90
7143;DHT22;3613;48.902;9.204;2022-11-15T10:38:53;15.20;99.90
7143;DHT22;3613;48.902;9.204;2022-11-15T10:46:36;14.90;99.90
7143;DHT22;3613;48.902;9.204;2022-11-15T10:49:17;14.80;99.90
7143;DHT22;3613;48.902;9.204;2022-11-15T10:54:39;15.00;99.90
7143;DHT22;3613;48.902;9.204;2022-11-15T10:57:19;15.10;99.90
7143;DHT22;3613;48.902;9.204;2022-11-15T10:59:51;15.10;99.90
7143;DHT22;3613;48.902;9.204;2022-11-15T11:02:39;14.90;99.90
7143;DHT22;3613;48.902;9.204;2022-11-15T11:08:00;14.80;99.90
7143;DHT22;3613;48.902;9.204;2022-11-15T11:10:31;14.80;99.90
7143;DHT22;3613;48.902;9.204;2022-11-15T11:13:22;14.70;99.90
7143;DHT22;3613;48.902;9.204;2022-11-15T11:21:15;14.50;99.90
7143;DHT22;3613;48.902;9.204;2022-11-15T11:23:57;14.50;99.90
7143;DHT22;3613;48.902;9.204;2022-11-15T11:29:31;14.40;99.90
7143;DHT22;3613;48.902;9.204;2022-11-15T11:32:09;14.40;99.90
7143;DHT22;3613;48.902;9.204;2022-11-15T11:48:07;15.00;99.90
7143;DHT22;3613;48.902;9.204;2022-11-15T11:50:37;15.10;99.90
7143;DHT22;3613;48.902;9.204;2022-11-15T11:53:57;15.10;99.90
7143;DHT22;3613;48.902;9.204;2022-11-15T11:56:33;15.20;99.90
7143;DHT22;3613;48.902;9.204;2022-11-15T11:59:19;15.20;99.90
7143;DHT22;3613;48.902;9.204;2022-11-15T12:01:45;15.10;99.90
7143;DHT22;3613;48.902;9.204;2022-11-15T12:04:20;15.30;99.90
7143;DHT22;3613;48.902;9.204;2022-11-15T12:14:51;15.30;99.90
7143;DHT22;3613;48.902;9.204;2022-11-15T12:17:21;15.30;99.90
7143;DHT22;3613;48.902;9.204;2022-11-15T12:19:48;15.50;99.90
7143;DHT22;3613;48.902;9.204;2022-11-15T12:25:00;15.70;99.90
7143;DHT22;3613;48.902;9.204;2022-11-15T12:27:48;15.80;99.90
7143;DHT22;3613;48.902;9.204;2022-11-15T12:30:20;15.70;99.90
7143;DHT22;3613;48.902;9.204;2022-11-15T12:32:52;15.70;99.90
7143;DHT22;3613;48.902;9.204;2022-11-15T12:35:42;15.60;99.90
7143;DHT22;3613;48.902;9.204;2022-11-15T12:38:14;15.50;99.90
7143;DHT22;3613;48.902;9.204;2022-11-15T12:41:15;15.40;99.90
7143;DHT22;3613;48.902;9.204;2022-11-15T12:43:43;15.50;99.90
7143;DHT22;3613;48.902;9.204;2022-11-15T13:02:42;14.90;99.90
7143;DHT22;3613;48.902;9.204;2022-11-15T13:17:51;15.00;99.90
7143;DHT22;3613;48.902;9.204;2022-11-15T13:25:46;15.10;99.90
7143;DHT22;3613;48.902;9.204;2022-11-15T13:33:20;14.90;99.90
7143;DHT22;3613;48.902;9.204;2022-11-15T13:35:50;14.80;99.90
7143;DHT22;3613;48.902;9.204;2022-11-15T13:38:26;14.80;99.90
7143;DHT22;3613;48.902;9.204;2022-11-15T13:40:56;14.80;99.90
7143;DHT22;3613;48.902;9.204;2022-11-15T13:46:24;14.50;99.90
7143;DHT22;3613;48.902;9.204;2022-11-15T13:51:49;14.30;99.90
7143;DHT22;3613;48.902;9.204;2022-11-15T13:57:08;14.40;99.90
7143;DHT22;3613;48.902;9.204;2022-11-15T13:59:44;14.40;99.90
7143;DHT22;3613;48.902;9.204;2022-11-15T14:02:24;14.40;99.90
7143;DHT22;3613;48.902;9.204;2022-11-15T14:05:00;14.40;99.90
7143;DHT22;3613;48.902;9.204;2022-11-15T14:07:28;14.40;99.90
7143;DHT22;3613;48.902;9.204;2022-11-15T14:09:56;14.40;99.90
7143;DHT22;3613;48.902;9.204;2022-11-15T14:12:32;14.40;99.90
7143;DHT22;3613;48.902;9.204;2022-11-15T14:15:00;14.50;99.90
7143;DHT22;3613;48.902;9.204;2022-11-15T14:19:58;14.40;99.90
7143;DHT22;3613;48.902;9.204;2022-11-15T14:22:26;14.40;99.90
7143;DHT22;3613;48.902;9.204;2022-11-15T14:25:20;14.40;99.90
7143;DHT22;3613;48.902;9.204;2022-11-15T14:28:09;14.30;99.90
7143;DHT22;3613;48.902;9.204;2022-11-15T14:30:35;14.20;99.90
7143;DHT22;3613;48.902;9.204;2022-11-15T14:33:01;14.10;99.90
7143;DHT22;3613;48.902;9.204;2022-11-15T14:35:28;14.00;99.90
7143;DHT22;3613;48.902;9.204;2022-11-15T14:37:56;14.00;99.90
7143;DHT22;3613;48.902;9.204;2022-11-15T14:40:22;13.90;99.90
7143;DHT22;3613;48.902;9.204;2022-11-15T14:42:51;13.80;99.90
7143;DHT22;3613;48.902;9.204;2022-11-15T14:45:19;13.70;99.90
7143;DHT22;3613;48.902;9.204;2022-11-15T14:47:45;13.50;99.90
7143;DHT22;3613;48.902;9.204;2022-11-15T14:50:15;13.40;99.90
7143;DHT22;3613;48.902;9.204;2022-11-15T14:52:41;13.30;99.90
7143;DHT22;3613;48.902;9.204;2022-11-15T14:57:42;13.10;99.90
7143;DHT22;3613;48.902;9.204;2022-11-15T15:00:08;13.10;99.90
7143;DHT22;3613;48.902;9.204;2022-11-15T15:02:35;13.00;99.90
7143;DHT22;3613;48.902;9.204;2022-11-15T15:05:07;13.00;99.90
7143;DHT22;3613;48.902;9.204;2022-11-15T15:07:37;12.90;99.90
7143;DHT22;3613;48.902;9.204;2022-11-15T15:10:03;12.90;99.90
7143;DHT22;3613;48.902;9.204;2022-11-15T15:12:31;12.80;99.90
7143;DHT22;3613;48.902;9.204;2022-11-15T15:14:57;12.90;99.90
7143;DHT22;3613;48.902;9.204;2022-11-15T15:17:24;12.90;99.90
7143;DHT22;3613;48.902;9.204;2022-11-15T15:19:52;12.90;99.90
7143;DHT22;3613;48.902;9.204;2022-11-15T15:22:19;12.90;99.90
7143;DHT22;3613;48.902;9.204;2022-11-15T15:24:48;12.80;99.90
7143;DHT22;3613;48.902;9.204;2022-11-15T15:27:13;12.90;99.90
7143;DHT22;3613;48.902;9.204;2022-11-15T15:29:39;12.70;99.90
7143;DHT22;3613;48.902;9.204;2022-11-15T15:32:09;12.70;99.90
7143;DHT22;3613;48.902;9.204;2022-11-15T15:34:35;12.70;99.90
7143;DHT22;3613;48.902;9.204;2022-11-15T15:37:22;12.70;99.90
7143;DHT22;3613;48.902;9.204;2022-11-15T15:39:50;12.60;99.90
7143;DHT22;3613;48.902;9.204;2022-11-15T15:42:15;12.80;99.90
7143;DHT22;3613;48.902;9.204;2022-11-15T15:44:41;12.60;99.90
7143;DHT22;3613;48.902;9.204;2022-11-15T15:47:20;12.60;99.90
7143;DHT22;3613;48.902;9.204;2022-11-15T15:49:47;12.60;99.90
7143;DHT22;3613;48.902;9.204;2022-11-15T15:52:13;12.60;99.90
7143;DHT22;3613;48.902;9.204;2022-11-15T15:54:39;12.60;99.90
7143;DHT22;3613;48.902;9.204;2022-11-15T15:57:06;12.60;99.90
7143;DHT22;3613;48.902;9.204;2022-11-15T15:59:32;12.50;99.90
7143;DHT22;3613;48.902;9.204;2022-11-15T16:01:58;12.40;99.90
7143;DHT22;3613;48.902;9.204;2022-11-15T16:04:23;12.40;99.90
7143;DHT22;3613;48.902;9.204;2022-11-15T16:06:52;12.30;99.90
7143;DHT22;3613;48.902;9.204;2022-11-15T16:09:20;12.30;99.90
7143;DHT22;3613;48.902;9.204;2022-11-15T16:12:06;12.30;99.90
7143;DHT22;3613;48.902;9.204;2022-11-15T16:14:32;12.30;99.90
7143;DHT22;3613;48.902;9.204;2022-11-15T16:16:59;12.30;99.90
7143;DHT22;3613;48.902;9.204;2022-11-15T16:19:25;12.30;99.90
7143;DHT22;3613;48.902;9.204;2022-11-15T16:21:51;12.20;99.90
7143;DHT22;3613;48.902;9.204;2022-11-15T16:24:19;12.30;99.90
7143;DHT22;3613;48.902;9.204;2022-11-15T16:26:48;12.40;99.90
7143;DHT22;3613;48.902;9.204;2022-11-15T16:29:14;12.30;99.90
7143;DHT22;3613;48.902;9.204;2022-11-15T16:31:42;12.30;99.90
7143;DHT22;3613;48.902;9.204;2022-11-15T16:34:08;12.30;99.90
7143;DHT22;3613;48.902;9.204;2022-11-15T16:36:36;12.30;99.90
7143;DHT22;3613;48.902;9.204;2022-11-15T16:39:02;12.30;99.90
7143;DHT22;3613;48.902;9.204;2022-11-15T16:41:29;12.20;99.90
7143;DHT22;3613;48.902;9.204;2022-11-15T16:43:55;12.20;99.90
7143;DHT22;3613;48.902;9.204;2022-11-15T16:46:25;12.20;99.90
7143;DHT22;3613;48.902;9.204;2022-11-15T16:48:52;12.30;99.90
7143;DHT22;3613;48.902;9.204;2022-11-15T16:51:18;12.40;99.90
7143;DHT22;3613;48.902;9.204;2022-11-15T16:53:44;12.40;99.90
7143;DHT22;3613;48.902;9.204;2022-11-15T16:58:50;12.40;99.90
7143;DHT22;3613;48.902;9.204;2022-11-15T17:01:27;12.40;99.90
7143;DHT22;3613;48.902;9.204;2022-11-15T17:03:55;12.40;99.90
7143;DHT22;3613;48.902;9.204;2022-11-15T17:06:25;12.40;99.90
7143;DHT22;3613;48.902;9.204;2022-11-15T17:08:51;12.40;99.90
7143;DHT22;3613;48.902;9.204;2022-11-15T17:11:19;12.40;99.90
7143;DHT22;3613;48.902;9.204;2022-11-15T17:13:47;12.50;99.90
7143;DHT22;3613;48.902;9.204;2022-11-15T17:16:16;12.40;99.90
7143;DHT22;3613;48.902;9.204;2022-11-15T17:18:43;12.40;99.90
7143;DHT22;3613;48.902;9.204;2022-11-15T17:21:20;12.40;99.90
7143;DHT22;3613;48.902;9.204;2022-11-15T17:23:47;12.40;99.90
7143;DHT22;3613;48.902;9.204;2022-11-15T17:26:13;12.40;99.90
7143;DHT22;3613;48.902;9.204;2022-11-15T17:28:40;12.40;99.90
7143;DHT22;3613;48.902;9.204;2022-11-15T17:31:10;12.40;99.90
7143;DHT22;3613;48.902;9.204;2022-11-15T17:33:36;12.40;99.90
7143;DHT22;3613;48.902;9.204;2022-11-15T17:36:10;12.30;99.90
7143;DHT22;3613;48.902;9.204;2022-11-15T17:38:36;12.20;99.90
7143;DHT22;3613;48.902;9.204;2022-11-15T17:41:14;12.30;99.90
7143;DHT22;3613;48.902;9.204;2022-11-15T17:43:40;12.20;99.90
7143;DHT22;3613;48.902;9.204;2022-11-15T17:46:14;12.20;99.90
7143;DHT22;3613;48.902;9.204;2022-11-15T17:48:40;12.10;99.90
7143;DHT22;3613;48.902;9.204;2022-11-15T17:51:10;11.90;99.90
7143;DHT22;3613;48.902;9.204;2022-11-15T17:53:40;11.90;99.90
7143;DHT22;3613;48.902;9.204;2022-11-15T17:58:36;11.90;99.90
7143;DHT22;3613;48.902;9.204;2022-11-15T18:01:29;12.10;99.90
7143;DHT22;3613;48.902;9.204;2022-11-15T18:03:56;12.00;99.90
7143;DHT22;3613;48.902;9.204;2022-11-15T18:06:23;12.00;99.90
7143;DHT22;3613;48.902;9.204;2022-11-15T18:08:51;12.00;99.90
7143;DHT22;3613;48.902;9.204;2022-11-15T18:13:46;12.00;99.90
7143;DHT22;3613;48.902;9.204;2022-11-15T18:16:14;12.00;99.90
7143;DHT22;3613;48.902;9.204;2022-11-15T18:18:41;11.90;99.90
7143;DHT22;3613;48.902;9.204;2022-11-15T18:23:37;11.90;99.90
7143;DHT22;3613;48.902;9.204;2022-11-15T18:26:04;11.90;99.90
7143;DHT22;3613;48.902;9.204;2022-11-15T18:28:32;11.90;99.90
7143;DHT22;3613;48.902;9.204;2022-11-15T18:30:59;12.00;99.90
7143;DHT22;3613;48.902;9.204;2022-11-15T18:33:28;11.90;99.90
7143;DHT22;3613;48.902;9.204;2022-11-15T18:35:59;11.90;99.90
7143;DHT22;3613;48.902;9.204;2022-11-15T18:38:25;12.00;99.90
7143;DHT22;3613;48.902;9.204;2022-11-15T18:41:03;12.00;99.90
7143;DHT22;3613;48.902;9.204;2022-11-15T18:43:29;11.90;99.90
7143;DHT22;3613;48.902;9.204;2022-11-15T18:45:57;11.90;99.90
7143;DHT22;3613;48.902;9.204;2022-11-15T18:48:30;11.90;99.90
7143;DHT22;3613;48.902;9.204;2022-11-15T18:51:04;11.90;99.90
7143;DHT22;3613;48.902;9.204;2022-11-15T18:53:33;11.80;99.90
7143;DHT22;3613;48.902;9.204;2022-11-15T18:56:08;11.80;99.90
7143;DHT22;3613;48.902;9.204;2022-11-15T18:58:36;11.70;99.90
7143;DHT22;3613;48.902;9.204;2022-11-15T19:01:18;11.60;99.90
7143;DHT22;3613;48.902;9.204;2022-11-15T19:03:46;11.60;99.90
7143;DHT22;3613;48.902;9.204;2022-11-15T19:06:16;11.50;99.90
7143;DHT22;3613;48.902;9.204;2022-11-15T19:08:44;11.40;99.90
7143;DHT22;3613;48.902;9.204;2022-11-15T19:11:16;11.30;99.90
7143;DHT22;3613;48.902;9.204;2022-11-15T19:13:46;11.20;99.90
7143;DHT22;3613;48.902;9.204;2022-11-15T19:16:14;11.20;99.90
7143;DHT22;3613;48.902;9.204;2022-11-15T19:18:40;11.10;99.90